createdAt,value
2023-05-14T00:00:07.433Z,100285.69
2023-05-14T00:00:39.062Z,100282.09
2023-05-14T00:01:10.672Z,100284.75
2023-05-14T00:01:42.189Z,100285.69
2023-05-14T00:02:13.761Z,100285.69
2023-05-14T00:02:45.405Z,100282.81
2023-05-14T00:03:17.198Z,100277.50
2023-05-14T00:03:48.916Z,100275.72
2023-05-14T00:04:20.574Z,100282.22
2023-05-14T00:04:52.879Z,100275.09
2023-05-14T00:05:24.506Z,100281.38
2023-05-14T00:05:56.079Z,100273.53
2023-05-14T00:06:27.619Z,100268.94
2023-05-14T00:06:59.129Z,100271.25
2023-05-14T00:07:30.799Z,100273.19
2023-05-14T00:08:02.660Z,100274.13
2023-05-14T00:08:34.160Z,100278.59
2023-05-14T00:09:05.688Z,100273.28
2023-05-14T00:09:37.300Z,100277.00
2023-05-14T00:10:09.120Z,100270.63
2023-05-14T00:10:40.710Z,100281.03
2023-05-14T00:11:12.236Z,100280.91
2023-05-14T00:11:43.883Z,100280.91
2023-05-14T00:12:15.500Z,100278.25
2023-05-14T00:12:47.392Z,100282.69
2023-05-14T00:13:18.996Z,100284.53
2023-05-14T00:13:50.705Z,100286.13
2023-05-14T00:14:22.285Z,100287.91
2023-05-14T00:14:54.202Z,100290.44
2023-05-14T00:15:25.676Z,100292.25
2023-05-14T00:15:57.342Z,100288.00
2023-05-14T00:16:29.068Z,100285.47
2023-05-14T00:17:00.665Z,100279.22
2023-05-14T00:17:32.192Z,100280.06
2023-05-14T00:18:04.110Z,100281.63
2023-05-14T00:18:35.890Z,100274.75
2023-05-14T00:19:07.496Z,100275.38
2023-05-14T00:19:39.108Z,100279.00
2023-05-14T00:20:10.904Z,100284.19
2023-05-14T00:20:42.440Z,100278.03
2023-05-14T00:21:14.030Z,100279.94
2023-05-14T00:21:46.943Z,100281.88
2023-05-14T00:22:18.458Z,100278.38
2023-05-14T00:22:50.102Z,100279.81
2023-05-14T00:23:22.132Z,100281.88
2023-05-14T00:23:53.881Z,100270.53
2023-05-14T00:24:25.444Z,100271.25
2023-05-14T00:24:57.024Z,100275.50
2023-05-14T00:25:28.680Z,100273.06
2023-05-14T00:26:00.236Z,100278.50
2023-05-14T00:26:31.776Z,100268.72
2023-05-14T00:27:03.528Z,100273.78
2023-05-14T00:27:35.480Z,100272.72
2023-05-14T00:28:07.001Z,100273.56
2023-05-14T00:28:38.523Z,100273.91
2023-05-14T00:29:10.033Z,100274.84
2023-05-14T00:29:41.561Z,100273.19
2023-05-14T00:30:13.079Z,100268.09
2023-05-14T00:30:44.598Z,100268.59
2023-05-14T00:31:16.196Z,100266.16
2023-05-14T00:31:48.206Z,100265.22
2023-05-14T00:32:19.897Z,100266.28
2023-05-14T00:32:51.530Z,100264.47
2023-05-14T00:33:23.078Z,100272.44
2023-05-14T00:33:54.594Z,100270.75
2023-05-14T00:34:26.018Z,100268.09
2023-05-14T00:34:57.676Z,100271.59
2023-05-14T00:35:29.147Z,100265.44
2023-05-14T00:36:00.745Z,100267.13
2023-05-14T00:36:32.280Z,100270.03
2023-05-14T00:37:03.900Z,100270.03
2023-05-14T00:37:35.382Z,100271.81
2023-05-14T00:38:06.916Z,100268.31
2023-05-14T00:38:38.514Z,100268.09
2023-05-14T00:39:10.101Z,100267.38
2023-05-14T00:39:41.636Z,100264.59
2023-05-14T00:40:13.205Z,100263.03
2023-05-14T00:40:45.021Z,100261.44
2023-05-14T00:41:16.484Z,100262.19
2023-05-14T00:41:48.082Z,100263.97
2023-05-14T00:42:19.618Z,100261.31
2023-05-14T00:42:51.192Z,100263.75
2023-05-14T00:43:22.753Z,100259.41
2023-05-14T00:43:54.291Z,100263.03
2023-05-14T00:44:25.832Z,100267.50
2023-05-14T00:44:57.349Z,100263.03
2023-05-14T00:45:28.920Z,100263.25
2023-05-14T00:46:00.438Z,100264.94
2023-05-14T00:46:32.015Z,100264.94
2023-05-14T00:47:03.790Z,100263.97
2023-05-14T00:47:35.655Z,100262.06
2023-05-14T00:48:07.348Z,100262.19
2023-05-14T00:48:38.872Z,100264.84
2023-05-14T00:49:10.348Z,100261.53
2023-05-14T00:49:41.950Z,100263.03
2023-05-14T00:50:13.467Z,100259.28
2023-05-14T00:50:44.999Z,100257.09
2023-05-14T00:51:16.772Z,100257.22
2023-05-14T00:51:48.312Z,100253.69
2023-05-14T00:52:20.078Z,100260.81
2023-05-14T00:52:51.638Z,100257.72
2023-05-14T00:53:23.122Z,100259.75
2023-05-14T00:53:54.903Z,100259.75
2023-05-14T00:54:26.551Z,100263.25
2023-05-14T00:54:58.079Z,100261.53
2023-05-14T00:55:30.045Z,100264.19
2023-05-14T00:56:01.666Z,100261.31
2023-05-14T00:56:33.452Z,100255.06
2023-05-14T00:57:05.049Z,100259.63
2023-05-14T00:57:36.642Z,100255.28
2023-05-14T00:58:09.946Z,100250.81
2023-05-14T00:58:41.506Z,100261.44
2023-05-14T00:59:13.430Z,100258.78
2023-05-14T00:59:45.040Z,100265.78
2023-05-14T01:00:19.894Z,100253.34
2023-05-14T01:00:51.510Z,100263.03
2023-05-14T01:01:23.227Z,100262.06
2023-05-14T01:01:54.789Z,100260.13
2023-05-14T01:02:26.425Z,100263.13
2023-05-14T01:02:58.258Z,100255.28
2023-05-14T01:03:32.805Z,100261.31
2023-05-14T01:04:04.763Z,100261.31
2023-05-14T01:04:36.397Z,100261.44
2023-05-14T01:05:08.104Z,100260.59
2023-05-14T01:05:41.543Z,100260.47
2023-05-14T01:06:17.424Z,100256.97
2023-05-14T01:07:02.409Z,100264.94
2023-05-14T01:07:33.915Z,100261.44
2023-05-14T01:08:25.807Z,100262.06
2023-05-14T01:09:08.509Z,100261.31
2023-05-14T01:09:44.678Z,100251.44
2023-05-14T01:10:25.508Z,100256.00
2023-05-14T01:11:00.518Z,100257.72
2023-05-14T01:11:50.619Z,100253.56
2023-05-14T01:12:38.976Z,100255.16
2023-05-14T01:13:13.326Z,100243.94
2023-05-14T01:13:51.671Z,100246.59
2023-05-14T01:14:26.074Z,100255.41
2023-05-14T01:15:09.293Z,100256.34
2023-05-14T01:15:40.796Z,100254.56
2023-05-14T01:16:12.819Z,100259.16
2023-05-14T01:16:44.853Z,100255.50
2023-05-14T01:17:16.484Z,100250.09
2023-05-14T01:17:54.489Z,100254.44
2023-05-14T01:18:26.104Z,100250.91
2023-05-14T01:18:57.864Z,100251.91
2023-05-14T01:19:29.442Z,100254.56
2023-05-14T01:20:01.009Z,100247.78
2023-05-14T01:20:32.524Z,100249.25
2023-05-14T01:21:04.216Z,100248.25
2023-05-14T01:21:39.078Z,100247.44
2023-05-14T01:22:11.038Z,100249.97
2023-05-14T01:22:42.557Z,100244.88
2023-05-14T01:23:14.225Z,100248.38
2023-05-14T01:23:45.769Z,100248.38
2023-05-14T01:24:17.349Z,100245.72
2023-05-14T01:24:48.887Z,100242.97
2023-05-14T01:25:20.447Z,100244.88
2023-05-14T01:25:52.003Z,100245.88
2023-05-14T01:26:23.677Z,100243.06
2023-05-14T01:26:55.959Z,100244.88
2023-05-14T01:27:30.360Z,100244.88
2023-05-14T01:28:04.448Z,100245.59
2023-05-14T01:28:35.975Z,100245.00
2023-05-14T01:29:21.574Z,100247.53
2023-05-14T01:29:56.975Z,100245.00
2023-05-14T01:30:35.842Z,100242.22
2023-05-14T01:31:08.119Z,100245.59
2023-05-14T01:31:39.962Z,100244.53
2023-05-14T01:32:11.572Z,100242.72
2023-05-14T01:32:43.123Z,100237.31
2023-05-14T01:33:15.714Z,100236.59
2023-05-14T01:33:47.323Z,100244.66
2023-05-14T01:34:19.930Z,100241.88
2023-05-14T01:34:51.447Z,100247.19
2023-05-14T01:35:24.474Z,100243.94
2023-05-14T01:35:55.981Z,100240.19
2023-05-14T01:36:27.720Z,100242.13
2023-05-14T01:36:59.177Z,100241.28
2023-05-14T01:37:30.754Z,100232.34
2023-05-14T01:38:03.590Z,100245.59
2023-05-14T01:38:35.130Z,100245.38
2023-05-14T01:39:06.847Z,100243.72
2023-05-14T01:39:38.367Z,100245.59
2023-05-14T01:40:09.991Z,100240.31
2023-05-14T01:40:41.546Z,100243.72
2023-05-14T01:41:13.072Z,100246.38
2023-05-14T01:41:44.614Z,100238.28
2023-05-14T01:42:16.132Z,100243.72
2023-05-14T01:42:47.685Z,100237.31
2023-05-14T01:43:19.361Z,100240.06
2023-05-14T01:43:51.044Z,100239.97
2023-05-14T01:44:25.403Z,100242.84
2023-05-14T01:44:56.935Z,100245.38
2023-05-14T01:45:28.437Z,100240.06
2023-05-14T01:45:59.994Z,100240.06
2023-05-14T01:46:32.027Z,100241.78
2023-05-14T01:47:03.691Z,100242.00
2023-05-14T01:47:35.280Z,100236.69
2023-05-14T01:48:06.906Z,100237.53
2023-05-14T01:48:38.566Z,100242.00
2023-05-14T01:49:10.049Z,100232.00
2023-05-14T01:49:41.647Z,100239.13
2023-05-14T01:50:13.201Z,100232.88
2023-05-14T01:50:44.749Z,100240.06
2023-05-14T01:51:16.288Z,100235.75
2023-05-14T01:51:47.826Z,100240.06
2023-05-14T01:52:19.397Z,100234.16
2023-05-14T01:52:50.936Z,100237.75
2023-05-14T01:53:22.781Z,100231.38
2023-05-14T01:53:57.154Z,100235.84
2023-05-14T01:54:28.787Z,100237.41
2023-05-14T01:55:00.341Z,100225.25
2023-05-14T01:55:31.825Z,100223.31
2023-05-14T01:56:03.384Z,100231.38
2023-05-14T01:56:34.901Z,100231.38
2023-05-14T01:57:06.424Z,100226.19
2023-05-14T01:57:38.021Z,100228.00
2023-05-14T01:58:09.563Z,100228.00
2023-05-14T01:58:41.141Z,100227.13
2023-05-14T01:59:12.693Z,100226.31
2023-05-14T01:59:44.227Z,100222.69
2023-05-14T02:00:15.869Z,100231.63
2023-05-14T02:00:47.411Z,100226.31
2023-05-14T02:01:18.961Z,100226.91
2023-05-14T02:01:50.582Z,100226.78
2023-05-14T02:02:22.165Z,100227.13
2023-05-14T02:02:53.846Z,100228.00
2023-05-14T02:03:25.411Z,100224.50
2023-05-14T02:03:56.999Z,100225.47
2023-05-14T02:04:28.542Z,100222.69
2023-05-14T02:05:00.022Z,100221.59
2023-05-14T02:05:31.568Z,100227.28
2023-05-14T02:06:03.110Z,100229.94
2023-05-14T02:06:34.656Z,100223.88
2023-05-14T02:07:06.180Z,100228.25
2023-05-14T02:07:37.688Z,100225.47
2023-05-14T02:08:09.383Z,100225.59
2023-05-14T02:08:40.950Z,100228.97
2023-05-14T02:09:12.511Z,100224.50
2023-05-14T02:09:44.026Z,100221.00
2023-05-14T02:10:15.652Z,100220.28
2023-05-14T02:10:47.248Z,100232.59
2023-05-14T02:11:18.853Z,100228.97
2023-05-14T02:11:50.337Z,100228.13
2023-05-14T02:12:21.931Z,100224.63
2023-05-14T02:12:53.549Z,100225.59
2023-05-14T02:13:25.510Z,100226.31
2023-05-14T02:13:57.069Z,100232.72
2023-05-14T02:14:28.568Z,100226.75
2023-05-14T02:15:00.095Z,100224.09
2023-05-14T02:15:31.598Z,100231.72
2023-05-14T02:16:03.280Z,100225.47
2023-05-14T02:16:34.826Z,100226.31
2023-05-14T02:17:06.428Z,100228.97
2023-05-14T02:17:38.034Z,100222.69
2023-05-14T02:18:09.633Z,100219.94
2023-05-14T02:18:41.220Z,100218.22
2023-05-14T02:19:12.856Z,100222.22
2023-05-14T02:19:44.670Z,100220.38
2023-05-14T02:20:16.382Z,100219.31
2023-05-14T02:20:47.891Z,100226.66
2023-05-14T02:21:19.543Z,100217.25
2023-05-14T02:21:51.274Z,100215.41
2023-05-14T02:22:22.819Z,100219.66
2023-05-14T02:22:54.461Z,100219.44
2023-05-14T02:23:37.756Z,100226.53
2023-05-14T02:24:12.882Z,100222.31
2023-05-14T02:24:44.473Z,100220.38
2023-05-14T02:25:16.085Z,100220.28
2023-05-14T02:25:47.752Z,100226.53
2023-05-14T02:26:19.525Z,100223.16
2023-05-14T02:26:51.059Z,100219.56
2023-05-14T02:27:22.697Z,100219.66
2023-05-14T02:27:54.267Z,100223.38
2023-05-14T02:28:28.586Z,100216.16
2023-05-14T02:29:00.159Z,100230.28
2023-05-14T02:29:31.753Z,100227.75
2023-05-14T02:30:03.788Z,100232.94
2023-05-14T02:30:35.275Z,100217.00
2023-05-14T02:31:06.825Z,100225.81
2023-05-14T02:31:38.379Z,100221.44
2023-05-14T02:32:10.018Z,100217.00
2023-05-14T02:32:41.771Z,100221.22
2023-05-14T02:33:13.530Z,100220.50
2023-05-14T02:33:45.330Z,100222.31
2023-05-14T02:34:16.930Z,100217.84
2023-05-14T02:34:48.531Z,100224.88
2023-05-14T02:35:20.206Z,100225.09
2023-05-14T02:35:51.742Z,100223.16
2023-05-14T02:36:23.211Z,100211.81
2023-05-14T02:36:54.711Z,100218.69
2023-05-14T02:37:26.310Z,100216.16
2023-05-14T02:37:57.944Z,100220.72
2023-05-14T02:38:29.527Z,100221.56
2023-05-14T02:39:01.056Z,100215.19
2023-05-14T02:39:32.589Z,100214.25
2023-05-14T02:40:04.260Z,100215.06
2023-05-14T02:40:36.727Z,100216.91
2023-05-14T02:41:08.323Z,100211.81
2023-05-14T02:41:39.859Z,100213.72
2023-05-14T02:42:11.431Z,100208.41
2023-05-14T02:42:43.015Z,100212.88
2023-05-14T02:43:14.553Z,100211.06
2023-05-14T02:43:45.966Z,100208.28
2023-05-14T02:44:17.552Z,100209.88
2023-05-14T02:44:49.193Z,100213.59
2023-05-14T02:45:20.679Z,100213.59
2023-05-14T02:45:52.143Z,100211.94
2023-05-14T02:46:23.775Z,100211.06
2023-05-14T02:46:55.460Z,100208.56
2023-05-14T02:47:27.030Z,100210.94
2023-05-14T02:47:58.746Z,100213.88
2023-05-14T02:48:30.314Z,100208.19
2023-05-14T02:49:01.867Z,100208.28
2023-05-14T02:49:33.446Z,100216.16
2023-05-14T02:50:05.190Z,100214.25
2023-05-14T02:50:36.712Z,100207.22
2023-05-14T02:51:08.264Z,100204.69
2023-05-14T02:51:39.833Z,100211.06
2023-05-14T02:52:11.493Z,100216.16
2023-05-14T02:52:43.085Z,100215.66
2023-05-14T02:53:14.608Z,100213.97
2023-05-14T02:53:46.100Z,100210.47
2023-05-14T02:54:17.671Z,100214.69
2023-05-14T02:54:49.213Z,100212.88
2023-05-14T02:55:21.156Z,100214.94
2023-05-14T02:55:52.640Z,100212.28
2023-05-14T02:56:24.278Z,100212.16
2023-05-14T02:56:55.785Z,100211.31
2023-05-14T02:57:27.336Z,100214.22
2023-05-14T02:57:58.896Z,100209.00
2023-05-14T02:58:30.423Z,100217.59
2023-05-14T02:59:01.972Z,100209.63
2023-05-14T02:59:33.907Z,100216.38
2023-05-14T03:00:06.196Z,100216.38
2023-05-14T03:00:38.191Z,100213.59
2023-05-14T03:01:10.203Z,100213.00
2023-05-14T03:01:42.251Z,100207.56
2023-05-14T03:02:14.300Z,100214.94
2023-05-14T03:02:46.385Z,100216.63
2023-05-14T03:03:19.019Z,100211.56
2023-05-14T03:03:50.941Z,100213.34
2023-05-14T03:04:22.811Z,100214.31
2023-05-14T03:04:54.499Z,100215.88
2023-05-14T03:05:25.989Z,100215.16
2023-05-14T03:05:57.592Z,100211.66
2023-05-14T03:06:29.144Z,100207.38
2023-05-14T03:07:00.701Z,100212.63
2023-05-14T03:07:32.227Z,100213.34
2023-05-14T03:08:03.908Z,100212.63
2023-05-14T03:08:35.441Z,100215.56
2023-05-14T03:09:06.989Z,100213.69
2023-05-14T03:09:38.587Z,100208.25
2023-05-14T03:10:10.296Z,100212.63
2023-05-14T03:10:41.835Z,100208.16
2023-05-14T03:11:13.468Z,100208.16
2023-05-14T03:11:45.034Z,100216.00
2023-05-14T03:12:16.545Z,100213.56
2023-05-14T03:12:48.135Z,100216.09
2023-05-14T03:13:19.636Z,100217.81
2023-05-14T03:13:51.246Z,100217.16
2023-05-14T03:14:22.974Z,100212.94
2023-05-14T03:14:54.531Z,100218.47
2023-05-14T03:15:26.096Z,100214.84
2023-05-14T03:15:57.768Z,100212.69
2023-05-14T03:16:29.476Z,100215.47
2023-05-14T03:17:01.322Z,100209.31
2023-05-14T03:17:32.999Z,100221.53
2023-05-14T03:18:04.600Z,100208.25
2023-05-14T03:18:36.172Z,100211.78
2023-05-14T03:19:08.144Z,100211.88
2023-05-14T03:19:39.772Z,100209.31
2023-05-14T03:20:12.144Z,100204.84
2023-05-14T03:20:43.701Z,100209.31
2023-05-14T03:21:15.992Z,100214.44
2023-05-14T03:21:47.712Z,100214.44
2023-05-14T03:22:19.256Z,100210.78
2023-05-14T03:22:50.814Z,100213.56
2023-05-14T03:23:22.460Z,100208.59
2023-05-14T03:23:53.968Z,100209.44
2023-05-14T03:24:25.671Z,100219.22
2023-05-14T03:24:57.305Z,100210.28
2023-05-14T03:25:28.900Z,100204.13
2023-05-14T03:26:00.731Z,100209.53
2023-05-14T03:26:32.212Z,100209.53
2023-05-14T03:27:03.895Z,100201.25
2023-05-14T03:27:35.522Z,100210.28
2023-05-14T03:28:07.073Z,100212.94
2023-05-14T03:28:38.691Z,100201.34
2023-05-14T03:29:10.282Z,100205.84
2023-05-14T03:29:41.861Z,100204.25
2023-05-14T03:30:13.539Z,100208.59
2023-05-14T03:30:45.131Z,100206.91
2023-05-14T03:31:16.781Z,100206.06
2023-05-14T03:31:48.405Z,100207.63
2023-05-14T03:32:20.036Z,100199.88
2023-05-14T03:32:51.596Z,100207.13
2023-05-14T03:33:23.213Z,100203.75
2023-05-14T03:33:54.846Z,100210.72
2023-05-14T03:34:26.421Z,100203.75
2023-05-14T03:34:57.957Z,100210.72
2023-05-14T03:35:29.489Z,100207.34
2023-05-14T03:36:01.068Z,100206.50
2023-05-14T03:36:32.539Z,100209.28
2023-05-14T03:37:04.099Z,100205.69
2023-05-14T03:37:35.680Z,100202.75
2023-05-14T03:38:07.142Z,100205.41
2023-05-14T03:38:38.718Z,100201.81
2023-05-14T03:39:10.262Z,100206.06
2023-05-14T03:39:41.823Z,100204.59
2023-05-14T03:40:13.341Z,100200.97
2023-05-14T03:40:44.893Z,100199.88
2023-05-14T03:41:16.336Z,100206.91
2023-05-14T03:41:47.918Z,100198.09
2023-05-14T03:42:19.466Z,100192.69
2023-05-14T03:42:50.966Z,100200.53
2023-05-14T03:43:22.516Z,100200.75
2023-05-14T03:43:53.987Z,100197.13
2023-05-14T03:44:25.514Z,100203.53
2023-05-14T03:44:56.993Z,100198.44
2023-05-14T03:45:28.511Z,100201.94
2023-05-14T03:46:00.152Z,100201.94
2023-05-14T03:46:31.787Z,100201.09
2023-05-14T03:47:03.630Z,100195.91
2023-05-14T03:47:35.390Z,100201.09
2023-05-14T03:48:07.139Z,100203.03
2023-05-14T03:48:38.849Z,100201.81
2023-05-14T03:49:10.483Z,100195.66
2023-05-14T03:49:42.088Z,100195.66
2023-05-14T03:50:13.590Z,100193.63
2023-05-14T03:50:45.294Z,100204.34
2023-05-14T03:51:16.839Z,100198.31
2023-05-14T03:51:48.413Z,100200.09
2023-05-14T03:52:19.928Z,100193.84
2023-05-14T03:52:51.829Z,100200.09
2023-05-14T03:53:23.391Z,100202.03
2023-05-14T03:53:54.942Z,100196.63
2023-05-14T03:54:26.571Z,100194.19
2023-05-14T03:54:58.053Z,100198.56
2023-05-14T03:55:29.561Z,100195.91
2023-05-14T03:56:01.074Z,100200.09
2023-05-14T03:56:32.600Z,100200.00
2023-05-14T03:57:04.491Z,100200.97
2023-05-14T03:57:36.124Z,100199.03
2023-05-14T03:58:07.639Z,100191.91
2023-05-14T03:58:39.217Z,100199.03
2023-05-14T03:59:10.748Z,100200.00
2023-05-14T03:59:42.288Z,100195.78
2023-05-14T04:00:14.175Z,100194.91
2023-05-14T04:00:45.722Z,100200.00
2023-05-14T04:01:17.259Z,100194.81
2023-05-14T04:01:48.809Z,100200.75
2023-05-14T04:02:20.404Z,100206.16
2023-05-14T04:02:52.057Z,100200.09
2023-05-14T04:03:23.657Z,100198.22
2023-05-14T04:03:55.564Z,100196.63
2023-05-14T04:04:27.287Z,100197.56
2023-05-14T04:04:58.923Z,100204.59
2023-05-14T04:05:30.488Z,100205.41
2023-05-14T04:06:02.016Z,100200.09
2023-05-14T04:06:33.621Z,100198.44
2023-05-14T04:07:05.158Z,100192.53
2023-05-14T04:07:36.668Z,100206.50
2023-05-14T04:08:08.222Z,100203.03
2023-05-14T04:08:39.688Z,100206.63
2023-05-14T04:09:11.221Z,100205.69
2023-05-14T04:09:42.802Z,100208.44
2023-05-14T04:10:14.378Z,100200.59
2023-05-14T04:10:45.978Z,100207.56
2023-05-14T04:11:17.536Z,100203.03
2023-05-14T04:11:49.145Z,100203.97
2023-05-14T04:12:20.653Z,100203.97
2023-05-14T04:12:52.235Z,100205.91
2023-05-14T04:13:23.707Z,100209.28
2023-05-14T04:13:55.308Z,100202.25
2023-05-14T04:14:26.889Z,100199.63
2023-05-14T04:14:58.473Z,100197.19
2023-05-14T04:15:30.031Z,100204.19
2023-05-14T04:16:01.545Z,100203.34
2023-05-14T04:16:33.140Z,100198.88
2023-05-14T04:17:04.824Z,100202.25
2023-05-14T04:17:36.396Z,100196.97
2023-05-14T04:18:08.057Z,100197.06
2023-05-14T04:18:40.159Z,100197.94
2023-05-14T04:19:11.912Z,100193.47
2023-05-14T04:19:43.558Z,100191.88
2023-05-14T04:20:15.644Z,100200.59
2023-05-14T04:20:47.177Z,100197.06
2023-05-14T04:21:18.708Z,100196.22
2023-05-14T04:21:50.234Z,100192.63
2023-05-14T04:22:21.787Z,100189.97
2023-05-14T04:22:53.848Z,100190.94
2023-05-14T04:23:25.354Z,100195.19
2023-05-14T04:23:56.954Z,100190.22
2023-05-14T04:24:28.592Z,100187.56
2023-05-14T04:25:00.152Z,100188.38
2023-05-14T04:25:31.757Z,100190.31
2023-05-14T04:26:03.287Z,100194.53
2023-05-14T04:26:34.934Z,100195.19
2023-05-14T04:27:06.536Z,100196.13
2023-05-14T04:27:38.120Z,100197.19
2023-05-14T04:28:09.734Z,100189.88
2023-05-14T04:28:41.292Z,100191.66
2023-05-14T04:29:12.784Z,100190.59
2023-05-14T04:29:44.373Z,100196.13
2023-05-14T04:30:15.996Z,100195.06
2023-05-14T04:30:48.284Z,100196.97
2023-05-14T04:31:19.885Z,100192.63
2023-05-14T04:31:51.565Z,100194.53
2023-05-14T04:32:23.205Z,100188.50
2023-05-14T04:32:54.813Z,100191.88
2023-05-14T04:33:26.393Z,100184.16
2023-05-14T04:33:57.960Z,100188.28
2023-05-14T04:34:29.572Z,100188.28
2023-05-14T04:35:01.207Z,100182.97
2023-05-14T04:35:32.659Z,100184.69
2023-05-14T04:36:04.534Z,100182.97
2023-05-14T04:36:36.025Z,100184.69
2023-05-14T04:37:07.575Z,100189.13
2023-05-14T04:37:39.081Z,100184.69
2023-05-14T04:38:10.631Z,100183.91
2023-05-14T04:38:42.129Z,100194.41
2023-05-14T04:39:13.647Z,100182.03
2023-05-14T04:39:45.164Z,100187.31
2023-05-14T04:40:19.217Z,100186.34
2023-05-14T04:40:50.775Z,100192.63
2023-05-14T04:41:22.300Z,100189.13
2023-05-14T04:41:53.785Z,100190.94
2023-05-14T04:42:25.372Z,100190.22
2023-05-14T04:42:56.992Z,100182.97
2023-05-14T04:43:28.467Z,100187.31
2023-05-14T04:44:00.255Z,100186.56
2023-05-14T04:44:31.813Z,100189.13
2023-05-14T04:45:03.436Z,100186.56
2023-05-14T04:45:35.080Z,100186.56
2023-05-14T04:46:06.877Z,100187.44
2023-05-14T04:46:38.553Z,100186.56
2023-05-14T04:47:10.060Z,100184.78
2023-05-14T04:47:41.709Z,100193.69
2023-05-14T04:48:13.321Z,100193.69
2023-05-14T04:48:44.915Z,100193.69
2023-05-14T04:49:16.463Z,100191.88
2023-05-14T04:49:48.135Z,100195.28
2023-05-14T04:50:19.760Z,100191.66
2023-05-14T04:50:51.269Z,100199.72
2023-05-14T04:51:23.032Z,100195.28
2023-05-14T04:51:54.554Z,100194.81
2023-05-14T04:52:26.181Z,100193.03
2023-05-14T04:52:57.754Z,100192.16
2023-05-14T04:53:29.276Z,100197.56
2023-05-14T04:54:00.856Z,100188.66
2023-05-14T04:54:32.635Z,100187.09
2023-05-14T04:55:04.335Z,100191.44
2023-05-14T04:55:35.835Z,100200.38
2023-05-14T04:56:07.361Z,100191.19
2023-05-14T04:56:38.883Z,100192.16
2023-05-14T04:57:10.456Z,100191.31
2023-05-14T04:57:42.042Z,100190.59
2023-05-14T04:58:13.609Z,100195.91
2023-05-14T04:58:45.214Z,100188.78
2023-05-14T04:59:16.827Z,100182.50
2023-05-14T04:59:48.448Z,100191.19
2023-05-14T05:00:20.004Z,100192.16
2023-05-14T05:00:51.614Z,100193.13
2023-05-14T05:01:23.160Z,100190.59
2023-05-14T05:01:54.735Z,100189.50
2023-05-14T05:02:26.333Z,100192.91
2023-05-14T05:02:57.905Z,100187.59
2023-05-14T05:03:29.554Z,100185.78
2023-05-14T05:04:01.152Z,100187.59
2023-05-14T05:04:32.689Z,100183.97
2023-05-14T05:05:04.320Z,100191.69
2023-05-14T05:05:35.870Z,100193.84
2023-05-14T05:06:07.473Z,100187.59
2023-05-14T05:06:38.957Z,100190.59
2023-05-14T05:07:10.447Z,100197.47
2023-05-14T05:07:41.988Z,100187.81
2023-05-14T05:08:13.517Z,100194.91
2023-05-14T05:08:45.199Z,100190.59
2023-05-14T05:09:17.653Z,100195.06
2023-05-14T05:09:49.192Z,100196.50
2023-05-14T05:10:20.791Z,100192.03
2023-05-14T05:10:52.293Z,100189.38
2023-05-14T05:11:23.826Z,100191.19
2023-05-14T05:11:55.297Z,100189.50
2023-05-14T05:12:26.871Z,100191.31
2023-05-14T05:12:58.413Z,100186.84
2023-05-14T05:13:29.937Z,100190.25
2023-05-14T05:14:01.441Z,100187.59
2023-05-14T05:14:33.063Z,100193.63
2023-05-14T05:15:04.911Z,100183.72
2023-05-14T05:15:36.547Z,100193.75
2023-05-14T05:16:08.210Z,100185.91
2023-05-14T05:16:39.784Z,100181.53
2023-05-14T05:17:11.324Z,100189.50
2023-05-14T05:17:42.970Z,100192.91
2023-05-14T05:18:14.512Z,100187.59
2023-05-14T05:18:46.093Z,100187.81
2023-05-14T05:19:17.712Z,100191.09
2023-05-14T05:19:49.514Z,100187.47
2023-05-14T05:20:21.140Z,100184.81
2023-05-14T05:20:52.678Z,100185.66
2023-05-14T05:21:24.223Z,100179.53
2023-05-14T05:21:55.770Z,100186.63
2023-05-14T05:22:27.412Z,100182.28
2023-05-14T05:22:58.947Z,100190.97
2023-05-14T05:23:30.487Z,100183.84
2023-05-14T05:24:02.028Z,100186.50
2023-05-14T05:24:33.561Z,100183.97
2023-05-14T05:25:05.291Z,100181.41
2023-05-14T05:25:36.798Z,100184.72
2023-05-14T05:26:08.459Z,100182.59
2023-05-14T05:26:40.006Z,100176.53
2023-05-14T05:27:11.648Z,100183.50
2023-05-14T05:27:43.136Z,100174.81
2023-05-14T05:28:14.700Z,100180.13
2023-05-14T05:28:46.263Z,100175.66
2023-05-14T05:29:17.777Z,100177.47
2023-05-14T05:29:49.275Z,100173.97
2023-05-14T05:30:20.858Z,100175.66
2023-05-14T05:30:52.421Z,100181.84
2023-05-14T05:31:24.114Z,100180.13
2023-05-14T05:31:55.661Z,100182.66
2023-05-14T05:32:27.414Z,100181.19
2023-05-14T05:32:59.118Z,100182.78
2023-05-14T05:33:30.692Z,100182.78
2023-05-14T05:34:02.618Z,100182.78
2023-05-14T05:34:34.468Z,100183.63
2023-05-14T05:35:06.234Z,100179.94
2023-05-14T05:35:37.830Z,100188.81
2023-05-14T05:36:09.377Z,100183.41
2023-05-14T05:36:40.861Z,100186.28
2023-05-14T05:37:12.436Z,100183.50
2023-05-14T05:37:43.967Z,100189.69
2023-05-14T05:38:15.897Z,100191.59
2023-05-14T05:38:47.534Z,100187.38
2023-05-14T05:39:19.160Z,100188.94
2023-05-14T05:39:50.660Z,100186.06
2023-05-14T05:40:22.333Z,100188.81
2023-05-14T05:40:53.931Z,100189.56
2023-05-14T05:41:25.517Z,100192.22
2023-05-14T05:41:57.017Z,100191.28
2023-05-14T05:42:28.533Z,100192.97
2023-05-14T05:43:00.208Z,100191.38
2023-05-14T05:43:31.695Z,100193.09
2023-05-14T05:44:03.198Z,100190.44
2023-05-14T05:44:34.741Z,100188.63
2023-05-14T05:45:06.748Z,100192.00
2023-05-14T05:45:38.486Z,100192.00
2023-05-14T05:46:10.099Z,100190.31
2023-05-14T05:46:41.829Z,100184.03
2023-05-14T05:47:13.416Z,100195.63
2023-05-14T05:47:45.055Z,100187.44
2023-05-14T05:48:16.707Z,100187.66
2023-05-14T05:48:48.392Z,100185.00
2023-05-14T05:49:19.954Z,100182.34
2023-05-14T05:49:51.474Z,100193.94
2023-05-14T05:50:23.169Z,100180.31
2023-05-14T05:50:54.910Z,100177.78
2023-05-14T05:51:26.431Z,100175.94
2023-05-14T05:51:57.943Z,100191.03
2023-05-14T05:52:29.566Z,100186.56
2023-05-14T05:53:01.082Z,100191.03
2023-05-14T05:53:32.668Z,100178.72
2023-05-14T05:54:04.262Z,100195.41
2023-05-14T05:54:35.813Z,100175.84
2023-05-14T05:55:07.514Z,100180.31
2023-05-14T05:55:40.499Z,100183.19
2023-05-14T05:56:12.130Z,100183.91
2023-05-14T05:56:43.649Z,100185.63
2023-05-14T05:57:15.175Z,100182.72
2023-05-14T05:57:46.732Z,100188.88
2023-05-14T05:58:18.672Z,100174.78
2023-05-14T05:58:50.260Z,100193.25
2023-05-14T05:59:21.916Z,100182.84
2023-05-14T05:59:53.462Z,100190.81
2023-05-14T06:00:25.358Z,100189.34
2023-05-14T06:00:57.070Z,100195.41
2023-05-14T06:01:28.552Z,100192.84
2023-05-14T06:02:00.260Z,100189.22
2023-05-14T06:02:31.997Z,100189.34
2023-05-14T06:03:03.771Z,100200.72
2023-05-14T06:03:35.341Z,100193.81
2023-05-14T06:04:07.001Z,100192.63